sensor_id;sensor_type;location;lat;lon;timestamp;P1;durP1;ratioP1;P2;durP2;ratioP2
59189;SDS011;50749;51.636;4.948;2022-12-17T00:01:30;13.50;;;6.78;;
59189;SDS011;50749;51.636;4.948;2022-12-17T00:04:14;9.95;;;6.75;;
59189;SDS011;50749;51.636;4.948;2022-12-17T00:06:59;13.03;;;7.40;;
59189;SDS011;50749;51.636;4.948;2022-12-17T00:09:43;11.40;;;6.30;;
59189;SDS011;50749;51.636;4.948;2022-12-17T00:12:28;7.30;;;5.93;;
59189;SDS011;50749;51.636;4.948;2022-12-17T00:15:12;10.52;;;6.68;;
59189;SDS011;50749;51.636;4.948;2022-12-17T00:18:06;8.90;;;5.23;;
59189;SDS011;50749;51.636;4.948;2022-12-17T00:20:52;9.30;;;6.17;;
59189;SDS011;50749;51.636;4.948;2022-12-17T00:23:40;9.48;;;6.10;;
59189;SDS011;50749;51.636;4.948;2022-12-17T00:26:26;9.18;;;5.93;;
59189;SDS011;50749;51.636;4.948;2022-12-17T00:29:11;8.98;;;6.07;;
59189;SDS011;50749;51.636;4.948;2022-12-17T00:31:56;9.95;;;6.38;;
59189;SDS011;50749;51.636;4.948;2022-12-17T00:34:41;8.63;;;5.95;;
59189;SDS011;50749;51.636;4.948;2022-12-17T00:37:25;9.25;;;6.40;;
59189;SDS011;50749;51.636;4.948;2022-12-17T00:40:10;8.90;;;6.35;;
59189;SDS011;50749;51.636;4.948;2022-12-17T00:43:12;8.57;;;5.90;;
59189;SDS011;50749;51.636;4.948;2022-12-17T00:45:57;8.65;;;5.95;;
59189;SDS011;50749;51.636;4.948;2022-12-17T00:48:42;8.85;;;5.85;;
59189;SDS011;50749;51.636;4.948;2022-12-17T00:51:27;10.80;;;6.68;;
59189;SDS011;50749;51.636;4.948;2022-12-17T00:54:12;9.68;;;6.32;;
59189;SDS011;50749;51.636;4.948;2022-12-17T00:56:56;9.60;;;6.70;;
59189;SDS011;50749;51.636;4.948;2022-12-17T00:59:40;8.82;;;5.97;;
59189;SDS011;50749;51.636;4.948;2022-12-17T01:02:25;11.65;;;7.05;;
59189;SDS011;50749;51.636;4.948;2022-12-17T01:05:10;11.18;;;7.03;;
59189;SDS011;50749;51.636;4.948;2022-12-17T01:07:55;17.40;;;7.05;;
59189;SDS011;50749;51.636;4.948;2022-12-17T01:10:40;9.32;;;5.85;;
59189;SDS011;50749;51.636;4.948;2022-12-17T01:13:25;11.32;;;6.85;;
59189;SDS011;50749;51.636;4.948;2022-12-17T01:16:11;9.95;;;6.45;;
59189;SDS011;50749;51.636;4.948;2022-12-17T01:18:57;11.85;;;6.85;;
59189;SDS011;50749;51.636;4.948;2022-12-17T01:21:41;12.13;;;6.50;;
59189;SDS011;50749;51.636;4.948;2022-12-17T01:27:11;10.43;;;6.32;;
59189;SDS011;50749;51.636;4.948;2022-12-17T01:29:55;11.57;;;7.43;;
59189;SDS011;50749;51.636;4.948;2022-12-17T01:32:40;9.52;;;5.28;;
59189;SDS011;50749;51.636;4.948;2022-12-17T01:35:24;9.60;;;6.45;;
59189;SDS011;50749;51.636;4.948;2022-12-17T01:38:13;11.63;;;7.13;;
59189;SDS011;50749;51.636;4.948;2022-12-17T01:40:58;10.30;;;6.20;;
59189;SDS011;50749;51.636;4.948;2022-12-17T01:43:43;13.38;;;7.30;;
59189;SDS011;50749;51.636;4.948;2022-12-17T01:46:28;12.47;;;7.40;;
59189;SDS011;50749;51.636;4.948;2022-12-17T01:49:18;10.88;;;7.10;;
59189;SDS011;50749;51.636;4.948;2022-12-17T01:52:05;11.77;;;6.78;;
59189;SDS011;50749;51.636;4.948;2022-12-17T01:54:50;11.25;;;7.18;;
59189;SDS011;50749;51.636;4.948;2022-12-17T01:57:34;10.32;;;6.55;;
59189;SDS011;50749;51.636;4.948;2022-12-17T02:00:19;10.20;;;7.00;;
59189;SDS011;50749;51.636;4.948;2022-12-17T02:03:04;12.25;;;7.20;;
59189;SDS011;50749;51.636;4.948;2022-12-17T02:09:29;12.45;;;7.10;;
59189;SDS011;50749;51.636;4.948;2022-12-17T02:12:11;11.85;;;7.13;;
59189;SDS011;50749;51.636;4.948;2022-12-17T02:17:51;11.48;;;6.70;;
59189;SDS011;50749;51.636;4.948;2022-12-17T02:20:40;11.20;;;6.82;;
59189;SDS011;50749;51.636;4.948;2022-12-17T02:26:42;11.93;;;7.57;;
59189;SDS011;50749;51.636;4.948;2022-12-17T02:29:31;11.20;;;7.00;;
59189;SDS011;50749;51.636;4.948;2022-12-17T02:32:20;11.52;;;7.03;;
59189;SDS011;50749;51.636;4.948;2022-12-17T02:35:17;10.55;;;7.07;;
59189;SDS011;50749;51.636;4.948;2022-12-17T02:41:23;10.90;;;6.38;;
59189;SDS011;50749;51.636;4.948;2022-12-17T02:44:21;9.55;;;6.00;;
59189;SDS011;50749;51.636;4.948;2022-12-17T02:47:07;10.38;;;6.72;;
59189;SDS011;50749;51.636;4.948;2022-12-17T02:49:53;11.98;;;7.45;;
59189;SDS011;50749;51.636;4.948;2022-12-17T02:52:39;11.88;;;6.95;;
59189;SDS011;50749;51.636;4.948;2022-12-17T02:55:27;11.50;;;6.70;;
59189;SDS011;50749;51.636;4.948;2022-12-17T02:58:12;11.75;;;7.30;;
59189;SDS011;50749;51.636;4.948;2022-12-17T03:00:56;10.82;;;6.63;;
59189;SDS011;50749;51.636;4.948;2022-12-17T03:03:41;12.85;;;6.90;;
59189;SDS011;50749;51.636;4.948;2022-12-17T03:06:26;14.88;;;8.45;;
59189;SDS011;50749;51.636;4.948;2022-12-17T03:09:11;12.73;;;7.85;;
59189;SDS011;50749;51.636;4.948;2022-12-17T03:11:55;11.02;;;6.70;;
59189;SDS011;50749;51.636;4.948;2022-12-17T03:14:39;12.40;;;6.65;;
59189;SDS011;50749;51.636;4.948;2022-12-17T03:17:24;13.03;;;8.10;;
59189;SDS011;50749;51.636;4.948;2022-12-17T03:20:08;12.75;;;7.60;;
59189;SDS011;50749;51.636;4.948;2022-12-17T03:23:00;11.80;;;6.78;;
59189;SDS011;50749;51.636;4.948;2022-12-17T03:25:46;10.60;;;6.85;;
59189;SDS011;50749;51.636;4.948;2022-12-17T03:28:31;10.98;;;6.72;;
59189;SDS011;50749;51.636;4.948;2022-12-17T03:31:15;10.35;;;6.60;;
59189;SDS011;50749;51.636;4.948;2022-12-17T03:34:00;10.70;;;7.07;;
59189;SDS011;50749;51.636;4.948;2022-12-17T03:36:44;12.18;;;7.30;;
59189;SDS011;50749;51.636;4.948;2022-12-17T03:39:28;10.82;;;6.13;;
59189;SDS011;50749;51.636;4.948;2022-12-17T03:42:13;13.07;;;7.60;;
59189;SDS011;50749;51.636;4.948;2022-12-17T03:44:57;9.88;;;6.55;;
59189;SDS011;50749;51.636;4.948;2022-12-17T03:47:42;10.85;;;6.70;;
59189;SDS011;50749;51.636;4.948;2022-12-17T03:50:26;11.23;;;6.90;;
59189;SDS011;50749;51.636;4.948;2022-12-17T03:53:11;9.47;;;6.00;;
59189;SDS011;50749;51.636;4.948;2022-12-17T03:55:55;10.87;;;6.63;;
59189;SDS011;50749;51.636;4.948;2022-12-17T03:58:40;8.93;;;6.18;;
59189;SDS011;50749;51.636;4.948;2022-12-17T04:01:24;10.55;;;6.38;;
59189;SDS011;50749;51.636;4.948;2022-12-17T04:04:08;10.93;;;6.47;;
59189;SDS011;50749;51.636;4.948;2022-12-17T04:06:52;10.68;;;6.57;;
59189;SDS011;50749;51.636;4.948;2022-12-17T04:09:37;10.77;;;6.70;;
59189;SDS011;50749;51.636;4.948;2022-12-17T04:12:21;11.55;;;7.15;;
59189;SDS011;50749;51.636;4.948;2022-12-17T04:15:06;11.07;;;7.03;;
59189;SDS011;50749;51.636;4.948;2022-12-17T04:17:51;11.73;;;7.47;;
59189;SDS011;50749;51.636;4.948;2022-12-17T04:20:35;9.50;;;6.30;;
59189;SDS011;50749;51.636;4.948;2022-12-17T04:23:19;10.02;;;6.45;;
59189;SDS011;50749;51.636;4.948;2022-12-17T04:26:04;9.60;;;5.97;;
59189;SDS011;50749;51.636;4.948;2022-12-17T04:28:48;11.43;;;7.28;;
59189;SDS011;50749;51.636;4.948;2022-12-17T04:31:33;9.57;;;6.22;;
59189;SDS011;50749;51.636;4.948;2022-12-17T04:34:17;12.03;;;6.67;;
59189;SDS011;50749;51.636;4.948;2022-12-17T04:37:02;11.38;;;6.68;;
59189;SDS011;50749;51.636;4.948;2022-12-17T04:39:46;10.45;;;7.07;;
59189;SDS011;50749;51.636;4.948;2022-12-17T04:42:30;10.30;;;6.50;;
59189;SDS011;50749;51.636;4.948;2022-12-17T04:45:15;11.15;;;6.45;;
59189;SDS011;50749;51.636;4.948;2022-12-17T04:48:03;11.00;;;7.13;;
59189;SDS011;50749;51.636;4.948;2022-12-17T04:50:48;12.75;;;6.90;;
59189;SDS011;50749;51.636;4.948;2022-12-17T04:53:33;12.27;;;6.95;;
59189;SDS011;50749;51.636;4.948;2022-12-17T04:56:17;10.65;;;6.38;;
59189;SDS011;50749;51.636;4.948;2022-12-17T04:59:03;11.45;;;6.75;;
59189;SDS011;50749;51.636;4.948;2022-12-17T05:01:47;12.63;;;7.15;;
59189;SDS011;50749;51.636;4.948;2022-12-17T05:04:32;14.38;;;7.95;;
59189;SDS011;50749;51.636;4.948;2022-12-17T05:07:16;11.35;;;6.35;;
59189;SDS011;50749;51.636;4.948;2022-12-17T05:10:01;14.73;;;7.88;;
59189;SDS011;50749;51.636;4.948;2022-12-17T05:12:44;12.27;;;6.78;;
59189;SDS011;50749;51.636;4.948;2022-12-17T05:15:29;10.37;;;6.50;;
59189;SDS011;50749;51.636;4.948;2022-12-17T05:18:13;12.73;;;7.20;;
59189;SDS011;50749;51.636;4.948;2022-12-17T05:20:58;10.65;;;6.40;;
59189;SDS011;50749;51.636;4.948;2022-12-17T05:23:42;12.60;;;7.35;;
59189;SDS011;50749;51.636;4.948;2022-12-17T05:26:27;11.77;;;7.95;;
59189;SDS011;50749;51.636;4.948;2022-12-17T05:29:12;13.43;;;7.60;;
59189;SDS011;50749;51.636;4.948;2022-12-17T05:31:57;12.13;;;6.88;;
59189;SDS011;50749;51.636;4.948;2022-12-17T05:34:41;12.10;;;7.28;;
59189;SDS011;50749;51.636;4.948;2022-12-17T05:37:30;13.35;;;7.57;;
59189;SDS011;50749;51.636;4.948;2022-12-17T05:40:15;11.88;;;8.00;;
59189;SDS011;50749;51.636;4.948;2022-12-17T05:43:00;14.80;;;7.10;;
59189;SDS011;50749;51.636;4.948;2022-12-17T05:45:48;11.80;;;6.97;;
59189;SDS011;50749;51.636;4.948;2022-12-17T05:48:32;10.38;;;7.05;;
59189;SDS011;50749;51.636;4.948;2022-12-17T05:51:18;14.15;;;7.45;;
59189;SDS011;50749;51.636;4.948;2022-12-17T05:54:03;10.63;;;6.07;;
59189;SDS011;50749;51.636;4.948;2022-12-17T05:56:47;11.27;;;7.07;;
59189;SDS011;50749;51.636;4.948;2022-12-17T05:59:32;10.48;;;6.43;;
59189;SDS011;50749;51.636;4.948;2022-12-17T06:02:16;12.52;;;7.05;;
59189;SDS011;50749;51.636;4.948;2022-12-17T06:05:01;12.90;;;7.57;;
59189;SDS011;50749;51.636;4.948;2022-12-17T06:07:45;12.13;;;6.78;;
59189;SDS011;50749;51.636;4.948;2022-12-17T06:10:30;10.73;;;7.00;;
59189;SDS011;50749;51.636;4.948;2022-12-17T06:13:15;9.73;;;6.47;;
59189;SDS011;50749;51.636;4.948;2022-12-17T06:15:59;13.85;;;7.10;;
59189;SDS011;50749;51.636;4.948;2022-12-17T06:18:43;11.35;;;6.30;;
59189;SDS011;50749;51.636;4.948;2022-12-17T06:21:28;10.98;;;6.78;;
59189;SDS011;50749;51.636;4.948;2022-12-17T06:24:12;10.85;;;6.68;;
59189;SDS011;50749;51.636;4.948;2022-12-17T06:26:57;10.80;;;6.53;;
59189;SDS011;50749;51.636;4.948;2022-12-17T06:29:41;8.27;;;6.10;;
59189;SDS011;50749;51.636;4.948;2022-12-17T06:32:26;9.73;;;5.53;;
59189;SDS011;50749;51.636;4.948;2022-12-17T06:35:10;11.32;;;5.97;;
59189;SDS011;50749;51.636;4.948;2022-12-17T06:37:58;7.70;;;4.45;;
59189;SDS011;50749;51.636;4.948;2022-12-17T06:40:43;7.80;;;4.28;;
59189;SDS011;50749;51.636;4.948;2022-12-17T06:43:28;6.80;;;4.20;;
59189;SDS011;50749;51.636;4.948;2022-12-17T06:46:13;8.05;;;3.92;;
59189;SDS011;50749;51.636;4.948;2022-12-17T06:48:57;7.43;;;4.57;;
59189;SDS011;50749;51.636;4.948;2022-12-17T06:51:41;7.30;;;3.87;;
59189;SDS011;50749;51.636;4.948;2022-12-17T06:54:26;8.43;;;4.38;;
59189;SDS011;50749;51.636;4.948;2022-12-17T06:57:11;7.45;;;4.80;;
59189;SDS011;50749;51.636;4.948;2022-12-17T06:59:55;8.07;;;4.83;;
59189;SDS011;50749;51.636;4.948;2022-12-17T07:02:40;6.97;;;3.90;;
59189;SDS011;50749;51.636;4.948;2022-12-17T07:05:24;8.32;;;4.15;;
59189;SDS011;50749;51.636;4.948;2022-12-17T07:08:09;8.40;;;4.32;;
59189;SDS011;50749;51.636;4.948;2022-12-17T07:10:53;8.52;;;5.18;;
59189;SDS011;50749;51.636;4.948;2022-12-17T07:13:38;7.82;;;4.43;;
59189;SDS011;50749;51.636;4.948;2022-12-17T07:16:22;7.65;;;4.70;;
59189;SDS011;50749;51.636;4.948;2022-12-17T07:19:06;6.80;;;4.07;;
59189;SDS011;50749;51.636;4.948;2022-12-17T07:21:51;6.90;;;4.07;;
59189;SDS011;50749;51.636;4.948;2022-12-17T07:24:35;6.88;;;3.83;;
59189;SDS011;50749;51.636;4.948;2022-12-17T07:27:20;8.27;;;3.93;;
59189;SDS011;50749;51.636;4.948;2022-12-17T07:30:04;6.80;;;4.03;;
59189;SDS011;50749;51.636;4.948;2022-12-17T07:32:59;7.50;;;3.95;;
59189;SDS011;50749;51.636;4.948;2022-12-17T07:35:53;5.85;;;3.55;;
59189;SDS011;50749;51.636;4.948;2022-12-17T07:38:38;6.38;;;3.75;;
59189;SDS011;50749;51.636;4.948;2022-12-17T07:41:23;7.50;;;4.55;;
59189;SDS011;50749;51.636;4.948;2022-12-17T07:44:08;8.63;;;4.28;;
59189;SDS011;50749;51.636;4.948;2022-12-17T07:46:52;7.50;;;4.47;;
59189;SDS011;50749;51.636;4.948;2022-12-17T07:49:36;8.67;;;4.43;;
59189;SDS011;50749;51.636;4.948;2022-12-17T07:52:21;6.00;;;3.83;;
59189;SDS011;50749;51.636;4.948;2022-12-17T07:55:05;7.57;;;3.75;;
59189;SDS011;50749;51.636;4.948;2022-12-17T07:57:57;7.22;;;4.57;;
59189;SDS011;50749;51.636;4.948;2022-12-17T08:00:45;6.75;;;3.92;;
59189;SDS011;50749;51.636;4.948;2022-12-17T08:03:30;7.93;;;4.60;;
59189;SDS011;50749;51.636;4.948;2022-12-17T08:06:14;8.75;;;4.35;;
59189;SDS011;50749;51.636;4.948;2022-12-17T08:08:59;13.18;;;4.75;;
59189;SDS011;50749;51.636;4.948;2022-12-17T08:11:44;7.05;;;4.20;;
59189;SDS011;50749;51.636;4.948;2022-12-17T08:14:28;6.82;;;4.25;;
59189;SDS011;50749;51.636;4.948;2022-12-17T08:17:13;7.95;;;4.10;;
59189;SDS011;50749;51.636;4.948;2022-12-17T08:19:57;7.18;;;4.10;;
59189;SDS011;50749;51.636;4.948;2022-12-17T08:22:42;8.40;;;4.72;;
59189;SDS011;50749;51.636;4.948;2022-12-17T08:25:27;9.93;;;4.47;;
59189;SDS011;50749;51.636;4.948;2022-12-17T08:28:11;6.47;;;4.05;;
59189;SDS011;50749;51.636;4.948;2022-12-17T08:30:56;9.70;;;5.10;;
59189;SDS011;50749;51.636;4.948;2022-12-17T08:33:41;8.13;;;4.05;;
59189;SDS011;50749;51.636;4.948;2022-12-17T08:36:25;9.13;;;4.68;;
59189;SDS011;50749;51.636;4.948;2022-12-17T08:39:09;8.38;;;4.10;;
59189;SDS011;50749;51.636;4.948;2022-12-17T08:41:53;6.47;;;4.43;;
59189;SDS011;50749;51.636;4.948;2022-12-17T08:44:38;7.13;;;4.20;;
59189;SDS011;50749;51.636;4.948;2022-12-17T08:47:22;6.47;;;4.22;;
59189;SDS011;50749;51.636;4.948;2022-12-17T08:50:06;7.37;;;4.23;;
59189;SDS011;50749;51.636;4.948;2022-12-17T08:53:01;6.82;;;4.07;;
59189;SDS011;50749;51.636;4.948;2022-12-17T08:55:47;8.93;;;4.78;;
59189;SDS011;50749;51.636;4.948;2022-12-17T08:58:31;9.33;;;4.57;;
59189;SDS011;50749;51.636;4.948;2022-12-17T09:01:16;7.03;;;4.50;;
59189;SDS011;50749;51.636;4.948;2022-12-17T09:04:00;13.52;;;4.97;;
59189;SDS011;50749;51.636;4.948;2022-12-17T09:06:46;7.07;;;4.63;;
59189;SDS011;50749;51.636;4.948;2022-12-17T09:12:14;8.43;;;4.72;;
59189;SDS011;50749;51.636;4.948;2022-12-17T09:14:59;6.65;;;4.28;;
59189;SDS011;50749;51.636;4.948;2022-12-17T09:17:43;7.72;;;5.05;;
59189;SDS011;50749;51.636;4.948;2022-12-17T09:20:28;7.38;;;4.60;;
59189;SDS011;50749;51.636;4.948;2022-12-17T09:23:14;7.65;;;4.45;;
59189;SDS011;50749;51.636;4.948;2022-12-17T09:25:59;7.82;;;4.85;;
59189;SDS011;50749;51.636;4.948;2022-12-17T09:28:43;9.82;;;4.50;;
59189;SDS011;50749;51.636;4.948;2022-12-17T09:31:29;15.75;;;6.25;;
59189;SDS011;50749;51.636;4.948;2022-12-17T09:34:15;11.07;;;5.68;;
59189;SDS011;50749;51.636;4.948;2022-12-17T09:36:59;30.33;;;6.40;;
59189;SDS011;50749;51.636;4.948;2022-12-17T09:39:51;11.80;;;5.05;;
59189;SDS011;50749;51.636;4.948;2022-12-17T09:42:37;8.80;;;5.43;;
59189;SDS011;50749;51.636;4.948;2022-12-17T09:45:59;9.57;;;5.43;;
59189;SDS011;50749;51.636;4.948;2022-12-17T09:52:12;9.95;;;5.90;;
59189;SDS011;50749;51.636;4.948;2022-12-17T09:55:12;10.45;;;5.43;;
59189;SDS011;50749;51.636;4.948;2022-12-17T09:58:13;11.50;;;5.25;;
59189;SDS011;50749;51.636;4.948;2022-12-17T10:01:17;11.73;;;5.22;;
59189;SDS011;50749;51.636;4.948;2022-12-17T10:04:09;9.30;;;5.18;;
59189;SDS011;50749;51.636;4.948;2022-12-17T10:07:04;11.20;;;4.93;;
59189;SDS011;50749;51.636;4.948;2022-12-17T10:09:57;9.38;;;5.20;;
59189;SDS011;50749;51.636;4.948;2022-12-17T10:12:46;9.40;;;5.20;;
59189;SDS011;50749;51.636;4.948;2022-12-17T10:15:31;13.60;;;6.72;;
59189;SDS011;50749;51.636;4.948;2022-12-17T10:18:15;14.05;;;6.60;;
59189;SDS011;50749;51.636;4.948;2022-12-17T10:21:01;14.95;;;7.05;;
59189;SDS011;50749;51.636;4.948;2022-12-17T10:24:02;11.05;;;5.53;;
59189;SDS011;50749;51.636;4.948;2022-12-17T10:26:50;11.20;;;6.00;;
59189;SDS011;50749;51.636;4.948;2022-12-17T10:29:35;13.57;;;6.67;;
59189;SDS011;50749;51.636;4.948;2022-12-17T10:32:21;13.48;;;7.60;;
59189;SDS011;50749;51.636;4.948;2022-12-17T10:35:07;12.82;;;7.15;;
59189;SDS011;50749;51.636;4.948;2022-12-17T10:38:08;18.75;;;7.13;;
59189;SDS011;50749;51.636;4.948;2022-12-17T10:40:54;11.93;;;6.05;;
59189;SDS011;50749;51.636;4.948;2022-12-17T10:43:39;12.10;;;7.05;;
59189;SDS011;50749;51.636;4.948;2022-12-17T10:46:25;11.38;;;6.00;;
59189;SDS011;50749;51.636;4.948;2022-12-17T10:49:12;14.65;;;6.07;;
59189;SDS011;50749;51.636;4.948;2022-12-17T10:51:59;14.27;;;6.43;;
59189;SDS011;50749;51.636;4.948;2022-12-17T10:54:55;13.23;;;6.97;;
59189;SDS011;50749;51.636;4.948;2022-12-17T10:57:42;12.25;;;6.07;;
59189;SDS011;50749;51.636;4.948;2022-12-17T11:00:35;15.98;;;6.78;;
59189;SDS011;50749;51.636;4.948;2022-12-17T11:06:41;14.88;;;5.85;;
59189;SDS011;50749;51.636;4.948;2022-12-17T11:09:31;10.45;;;4.78;;
59189;SDS011;50749;51.636;4.948;2022-12-17T11:12:35;17.88;;;5.70;;
59189;SDS011;50749;51.636;4.948;2022-12-17T11:18:18;9.10;;;5.70;;
59189;SDS011;50749;51.636;4.948;2022-12-17T11:21:07;9.48;;;5.10;;
59189;SDS011;50749;51.636;4.948;2022-12-17T11:23:58;13.13;;;7.43;;
59189;SDS011;50749;51.636;4.948;2022-12-17T11:26:44;17.67;;;6.60;;
59189;SDS011;50749;51.636;4.948;2022-12-17T11:29:34;10.65;;;5.22;;
59189;SDS011;50749;51.636;4.948;2022-12-17T11:32:23;10.75;;;5.20;;
59189;SDS011;50749;51.636;4.948;2022-12-17T11:35:23;12.50;;;5.50;;
59189;SDS011;50749;51.636;4.948;2022-12-17T11:44:31;10.55;;;5.18;;
59189;SDS011;50749;51.636;4.948;2022-12-17T11:56:50;11.70;;;5.00;;
59189;SDS011;50749;51.636;4.948;2022-12-17T12:00:00;9.10;;;4.40;;
59189;SDS011;50749;51.636;4.948;2022-12-17T12:02:54;12.87;;;4.93;;
59189;SDS011;50749;51.636;4.948;2022-12-17T12:06:02;8.73;;;3.45;;
59189;SDS011;50749;51.636;4.948;2022-12-17T12:12:13;10.27;;;4.63;;
59189;SDS011;50749;51.636;4.948;2022-12-17T12:18:24;9.60;;;5.25;;
59189;SDS011;50749;51.636;4.948;2022-12-17T12:28:12;11.15;;;5.20;;
59189;SDS011;50749;51.636;4.948;2022-12-17T12:31:30;16.73;;;5.95;;
59189;SDS011;50749;51.636;4.948;2022-12-17T12:34:29;10.52;;;4.72;;
59189;SDS011;50749;51.636;4.948;2022-12-17T12:37:17;7.78;;;4.25;;
59189;SDS011;50749;51.636;4.948;2022-12-17T12:43:34;10.48;;;5.28;;
59189;SDS011;50749;51.636;4.948;2022-12-17T12:49:51;7.93;;;4.72;;
59189;SDS011;50749;51.636;4.948;2022-12-17T12:52:49;13.85;;;5.40;;
59189;SDS011;50749;51.636;4.948;2022-12-17T12:55:38;9.13;;;4.82;;
59189;SDS011;50749;51.636;4.948;2022-12-17T13:01:11;9.10;;;4.68;;
59189;SDS011;50749;51.636;4.948;2022-12-17T13:03:58;10.82;;;5.38;;
59189;SDS011;50749;51.636;4.948;2022-12-17T13:09:19;10.25;;;5.25;;
59189;SDS011;50749;51.636;4.948;2022-12-17T13:11:46;8.77;;;4.75;;
59189;SDS011;50749;51.636;4.948;2022-12-17T13:14:20;7.60;;;4.50;;
59189;SDS011;50749;51.636;4.948;2022-12-17T13:16:52;8.20;;;4.40;;
59189;SDS011;50749;51.636;4.948;2022-12-17T13:19:38;13.15;;;5.30;;
59189;SDS011;50749;51.636;4.948;2022-12-17T13:22:26;10.15;;;5.07;;
59189;SDS011;50749;51.636;4.948;2022-12-17T13:27:43;10.98;;;5.20;;
59189;SDS011;50749;51.636;4.948;2022-12-17T13:32:45;12.05;;;6.95;;
59189;SDS011;50749;51.636;4.948;2022-12-17T13:38:26;13.73;;;5.93;;
59189;SDS011;50749;51.636;4.948;2022-12-17T13:43:41;10.88;;;5.82;;
59189;SDS011;50749;51.636;4.948;2022-12-17T13:46:20;11.38;;;5.97;;
59189;SDS011;50749;51.636;4.948;2022-12-17T13:48:54;10.60;;;5.18;;
59189;SDS011;50749;51.636;4.948;2022-12-17T13:51:22;10.60;;;5.75;;
59189;SDS011;50749;51.636;4.948;2022-12-17T13:53:56;9.05;;;5.57;;
59189;SDS011;50749;51.636;4.948;2022-12-17T13:56:34;10.52;;;5.38;;
59189;SDS011;50749;51.636;4.948;2022-12-17T13:59:02;10.90;;;5.40;;
59189;SDS011;50749;51.636;4.948;2022-12-17T14:01:32;9.13;;;5.25;;
59189;SDS011;50749;51.636;4.948;2022-12-17T14:04:17;10.35;;;5.03;;
59189;SDS011;50749;51.636;4.948;2022-12-17T14:06:48;8.75;;;4.90;;
59189;SDS011;50749;51.636;4.948;2022-12-17T14:09:16;10.75;;;5.93;;
59189;SDS011;50749;51.636;4.948;2022-12-17T14:11:45;11.65;;;5.72;;
59189;SDS011;50749;51.636;4.948;2022-12-17T14:14:36;8.35;;;4.45;;
59189;SDS011;50749;51.636;4.948;2022-12-17T14:17:05;11.02;;;5.45;;
59189;SDS011;50749;51.636;4.948;2022-12-17T14:19:39;12.32;;;6.60;;
59189;SDS011;50749;51.636;4.948;2022-12-17T14:22:05;11.18;;;5.55;;
59189;SDS011;50749;51.636;4.948;2022-12-17T14:24:31;11.82;;;6.45;;
59189;SDS011;50749;51.636;4.948;2022-12-17T14:26:57;13.38;;;7.00;;
59189;SDS011;50749;51.636;4.948;2022-12-17T14:29:26;12.35;;;7.15;;
59189;SDS011;50749;51.636;4.948;2022-12-17T14:32:20;10.20;;;5.93;;
59189;SDS011;50749;51.636;4.948;2022-12-17T14:34:54;14.10;;;6.53;;
59189;SDS011;50749;51.636;4.948;2022-12-17T14:37:21;11.35;;;6.25;;
59189;SDS011;50749;51.636;4.948;2022-12-17T14:39:50;13.57;;;5.60;;
59189;SDS011;50749;51.636;4.948;2022-12-17T14:42:19;11.82;;;6.03;;
59189;SDS011;50749;51.636;4.948;2022-12-17T14:44:54;10.02;;;5.55;;
59189;SDS011;50749;51.636;4.948;2022-12-17T14:47:25;15.35;;;5.80;;
59189;SDS011;50749;51.636;4.948;2022-12-17T14:52:41;9.25;;;5.35;;
59189;SDS011;50749;51.636;4.948;2022-12-17T14:55:23;11.70;;;5.70;;
59189;SDS011;50749;51.636;4.948;2022-12-17T14:57:50;11.70;;;5.18;;
59189;SDS011;50749;51.636;4.948;2022-12-17T15:00:18;13.48;;;5.82;;
59189;SDS011;50749;51.636;4.948;2022-12-17T15:02:47;11.93;;;5.72;;
59189;SDS011;50749;51.636;4.948;2022-12-17T15:05:17;10.88;;;6.15;;
59189;SDS011;50749;51.636;4.948;2022-12-17T15:07:42;10.55;;;5.60;;
59189;SDS011;50749;51.636;4.948;2022-12-17T15:10:10;10.77;;;5.63;;
59189;SDS011;50749;51.636;4.948;2022-12-17T15:12:39;11.80;;;5.88;;
59189;SDS011;50749;51.636;4.948;2022-12-17T15:15:06;9.90;;;5.32;;
59189;SDS011;50749;51.636;4.948;2022-12-17T15:17:38;8.60;;;4.88;;
59189;SDS011;50749;51.636;4.948;2022-12-17T15:20:05;10.10;;;5.68;;
59189;SDS011;50749;51.636;4.948;2022-12-17T15:22:41;12.95;;;6.30;;
59189;SDS011;50749;51.636;4.948;2022-12-17T15:25:14;20.20;;;5.68;;
59189;SDS011;50749;51.636;4.948;2022-12-17T15:27:41;10.07;;;5.13;;
59189;SDS011;50749;51.636;4.948;2022-12-17T15:30:15;8.90;;;5.80;;
59189;SDS011;50749;51.636;4.948;2022-12-17T15:32:43;10.52;;;5.28;;
59189;SDS011;50749;51.636;4.948;2022-12-17T15:35:11;9.77;;;5.38;;
59189;SDS011;50749;51.636;4.948;2022-12-17T15:37:37;9.70;;;5.30;;
59189;SDS011;50749;51.636;4.948;2022-12-17T15:40:05;8.77;;;4.55;;
59189;SDS011;50749;51.636;4.948;2022-12-17T15:42:31;9.65;;;5.10;;
59189;SDS011;50749;51.636;4.948;2022-12-17T15:45:17;12.55;;;5.30;;
59189;SDS011;50749;51.636;4.948;2022-12-17T15:47:43;7.93;;;4.95;;
59189;SDS011;50749;51.636;4.948;2022-12-17T15:50:09;10.23;;;4.97;;
59189;SDS011;50749;51.636;4.948;2022-12-17T15:52:35;8.35;;;5.05;;
59189;SDS011;50749;51.636;4.948;2022-12-17T15:55:02;10.48;;;5.28;;
59189;SDS011;50749;51.636;4.948;2022-12-17T15:57:28;9.00;;;5.35;;
59189;SDS011;50749;51.636;4.948;2022-12-17T15:59:54;8.82;;;5.05;;
59189;SDS011;50749;51.636;4.948;2022-12-17T16:02:20;9.15;;;5.40;;
59189;SDS011;50749;51.636;4.948;2022-12-17T16:04:46;9.60;;;5.47;;
59189;SDS011;50749;51.636;4.948;2022-12-17T16:07:12;10.15;;;5.35;;
59189;SDS011;50749;51.636;4.948;2022-12-17T16:09:38;10.30;;;5.95;;
59189;SDS011;50749;51.636;4.948;2022-12-17T16:12:04;8.43;;;5.20;;
59189;SDS011;50749;51.636;4.948;2022-12-17T16:14:30;11.40;;;6.28;;
59189;SDS011;50749;51.636;4.948;2022-12-17T16:16:56;10.73;;;5.32;;
59189;SDS011;50749;51.636;4.948;2022-12-17T16:19:22;8.88;;;5.70;;
59189;SDS011;50749;51.636;4.948;2022-12-17T16:21:48;10.30;;;5.35;;
59189;SDS011;50749;51.636;4.948;2022-12-17T16:24:14;9.75;;;5.35;;
59189;SDS011;50749;51.636;4.948;2022-12-17T16:26:39;9.63;;;6.15;;
59189;SDS011;50749;51.636;4.948;2022-12-17T16:29:06;10.68;;;5.57;;
59189;SDS011;50749;51.636;4.948;2022-12-17T16:31:31;10.10;;;5.50;;
59189;SDS011;50749;51.636;4.948;2022-12-17T16:33:58;9.15;;;5.20;;
59189;SDS011;50749;51.636;4.948;2022-12-17T16:36:23;10.85;;;5.80;;
59189;SDS011;50749;51.636;4.948;2022-12-17T16:38:51;8.43;;;5.18;;
59189;SDS011;50749;51.636;4.948;2022-12-17T16:41:18;7.93;;;4.75;;
59189;SDS011;50749;51.636;4.948;2022-12-17T16:43:47;8.40;;;5.50;;
59189;SDS011;50749;51.636;4.948;2022-12-17T16:46:30;7.38;;;4.93;;
59189;SDS011;50749;51.636;4.948;2022-12-17T16:49:04;8.82;;;5.03;;
59189;SDS011;50749;51.636;4.948;2022-12-17T16:51:32;10.30;;;5.40;;
59189;SDS011;50749;51.636;4.948;2022-12-17T16:54:07;8.88;;;5.35;;
59189;SDS011;50749;51.636;4.948;2022-12-17T16:59:02;7.22;;;4.38;;
59189;SDS011;50749;51.636;4.948;2022-12-17T17:01:29;9.77;;;5.57;;
59189;SDS011;50749;51.636;4.948;2022-12-17T17:03:55;7.07;;;4.72;;
59189;SDS011;50749;51.636;4.948;2022-12-17T17:06:22;8.90;;;5.07;;
59189;SDS011;50749;51.636;4.948;2022-12-17T17:08:49;9.30;;;5.70;;
59189;SDS011;50749;51.636;4.948;2022-12-17T17:13:50;10.93;;;5.43;;
59189;SDS011;50749;51.636;4.948;2022-12-17T17:16:18;8.98;;;5.38;;
59189;SDS011;50749;51.636;4.948;2022-12-17T17:18:45;9.10;;;5.35;;
59189;SDS011;50749;51.636;4.948;2022-12-17T17:23:38;7.20;;;4.35;;
59189;SDS011;50749;51.636;4.948;2022-12-17T17:26:04;6.45;;;4.32;;
59189;SDS011;50749;51.636;4.948;2022-12-17T17:28:31;9.10;;;5.55;;
59189;SDS011;50749;51.636;4.948;2022-12-17T17:31:01;8.82;;;4.57;;
59189;SDS011;50749;51.636;4.948;2022-12-17T17:33:32;8.30;;;4.88;;
59189;SDS011;50749;51.636;4.948;2022-12-17T17:36:09;7.05;;;4.90;;
59189;SDS011;50749;51.636;4.948;2022-12-17T17:38:37;7.38;;;4.43;;
59189;SDS011;50749;51.636;4.948;2022-12-17T17:41:04;7.90;;;4.70;;